sensor_id;sensor_type;location;lat;lon;timestamp;pressure;altitude;pressure_sealevel;temperature;humidity
68107;BME280;54892;47.488;19.026;2023-07-31T00:01:26;99667.88;;;20.76;77.77
68107;BME280;54892;47.488;19.026;2023-07-31T00:04:29;99670.00;;;20.82;77.29
68107;BME280;54892;47.488;19.026;2023-07-31T00:07:33;99662.31;;;20.93;76.50
68107;BME280;54892;47.488;19.026;2023-07-31T00:10:38;99665.75;;;20.81;76.99
68107;BME280;54892;47.488;19.026;2023-07-31T00:13:41;99663.38;;;20.80;77.00
68107;BME280;54892;47.488;19.026;2023-07-31T00:16:44;99668.63;;;20.76;77.10
68107;BME280;54892;47.488;19.026;2023-07-31T00:19:47;99661.69;;;20.75;77.02
68107;BME280;54892;47.488;19.026;2023-07-31T00:22:52;99661.50;;;20.80;76.71
68107;BME280;54892;47.488;19.026;2023-07-31T00:25:56;99665.63;;;20.78;76.87
68107;BME280;54892;47.488;19.026;2023-07-31T00:29:00;99667.38;;;20.74;77.02
68107;BME280;54892;47.488;19.026;2023-07-31T00:32:03;99671.50;;;20.71;77.17
68107;BME280;54892;47.488;19.026;2023-07-31T00:35:06;99675.13;;;20.75;77.12
68107;BME280;54892;47.488;19.026;2023-07-31T00:38:09;99671.50;;;20.71;77.32
68107;BME280;54892;47.488;19.026;2023-07-31T00:41:13;99672.63;;;20.70;77.39
68107;BME280;54892;47.488;19.026;2023-07-31T00:44:16;99676.09;;;20.71;77.44
68107;BME280;54892;47.488;19.026;2023-07-31T00:47:20;99683.56;;;20.65;77.71
68107;BME280;54892;47.488;19.026;2023-07-31T00:50:23;99682.91;;;20.68;77.59
68107;BME280;54892;47.488;19.026;2023-07-31T00:53:27;99684.22;;;20.62;77.95
68107;BME280;54892;47.488;19.026;2023-07-31T00:56:32;99678.97;;;20.65;77.78
68107;BME280;54892;47.488;19.026;2023-07-31T00:59:35;99681.87;;;20.60;78.16
68107;BME280;54892;47.488;19.026;2023-07-31T01:02:38;99678.06;;;20.61;78.15
68107;BME280;54892;47.488;19.026;2023-07-31T01:05:43;99693.38;;;20.61;78.16
68107;BME280;54892;47.488;19.026;2023-07-31T01:08:57;99676.06;;;20.58;78.25
68107;BME280;54892;47.488;19.026;2023-07-31T01:12:05;99686.19;;;20.52;78.68
68107;BME280;54892;47.488;19.026;2023-07-31T01:15:09;99692.69;;;20.51;78.56
68107;BME280;54892;47.488;19.026;2023-07-31T01:18:14;99693.97;;;20.45;78.69
68107;BME280;54892;47.488;19.026;2023-07-31T01:21:21;99693.66;;;20.47;78.43
68107;BME280;54892;47.488;19.026;2023-07-31T01:24:29;99692.09;;;20.46;78.19
68107;BME280;54892;47.488;19.026;2023-07-31T01:27:34;99697.13;;;20.47;77.86
68107;BME280;54892;47.488;19.026;2023-07-31T01:30:41;99703.78;;;20.41;77.95
68107;BME280;54892;47.488;19.026;2023-07-31T01:33:46;99697.19;;;20.38;77.94
68107;BME280;54892;47.488;19.026;2023-07-31T01:36:50;99702.56;;;20.38;77.73
68107;BME280;54892;47.488;19.026;2023-07-31T01:39:53;99700.88;;;20.34;77.53
68107;BME280;54892;47.488;19.026;2023-07-31T01:42:57;99690.91;;;20.34;76.99
68107;BME280;54892;47.488;19.026;2023-07-31T01:46:01;99693.00;;;20.29;77.66
68107;BME280;54892;47.488;19.026;2023-07-31T01:49:05;99693.59;;;20.34;77.19
68107;BME280;54892;47.488;19.026;2023-07-31T01:52:08;99688.75;;;20.28;77.31
68107;BME280;54892;47.488;19.026;2023-07-31T01:55:11;99687.41;;;20.21;77.31
68107;BME280;54892;47.488;19.026;2023-07-31T01:58:16;99683.16;;;20.20;77.28
68107;BME280;54892;47.488;19.026;2023-07-31T02:01:19;99674.47;;;20.23;76.82
68107;BME280;54892;47.488;19.026;2023-07-31T02:04:23;99671.06;;;20.14;77.14
68107;BME280;54892;47.488;19.026;2023-07-31T02:07:26;99672.16;;;20.13;76.76
68107;BME280;54892;47.488;19.026;2023-07-31T02:10:29;99667.16;;;20.12;76.50
68107;BME280;54892;47.488;19.026;2023-07-31T02:13:34;99668.38;;;20.14;76.03
68107;BME280;54892;47.488;19.026;2023-07-31T02:16:37;99671.88;;;20.15;76.16
68107;BME280;54892;47.488;19.026;2023-07-31T02:19:40;99680.66;;;20.15;76.10
68107;BME280;54892;47.488;19.026;2023-07-31T02:22:43;99679.28;;;20.09;76.33
68107;BME280;54892;47.488;19.026;2023-07-31T02:25:47;99685.31;;;20.06;76.53
68107;BME280;54892;47.488;19.026;2023-07-31T02:28:52;99686.91;;;20.07;76.67
68107;BME280;54892;47.488;19.026;2023-07-31T02:31:55;99683.75;;;20.05;76.81
68107;BME280;54892;47.488;19.026;2023-07-31T02:34:58;99688.53;;;19.99;77.10
68107;BME280;54892;47.488;19.026;2023-07-31T02:38:02;99686.38;;;19.92;77.39
68107;BME280;54892;47.488;19.026;2023-07-31T02:41:05;99698.50;;;19.90;77.60
68107;BME280;54892;47.488;19.026;2023-07-31T02:44:10;99696.19;;;19.80;78.07
68107;BME280;54892;47.488;19.026;2023-07-31T02:47:16;99691.59;;;19.80;78.30
68107;BME280;54892;47.488;19.026;2023-07-31T02:50:19;99701.25;;;19.72;78.81
68107;BME280;54892;47.488;19.026;2023-07-31T02:53:23;99709.94;;;19.69;79.05
68107;BME280;54892;47.488;19.026;2023-07-31T02:56:27;99713.91;;;19.63;79.54
68107;BME280;54892;47.488;19.026;2023-07-31T02:59:31;99719.13;;;19.59;79.79
68107;BME280;54892;47.488;19.026;2023-07-31T03:02:34;99711.87;;;19.60;79.82
68107;BME280;54892;47.488;19.026;2023-07-31T03:05:37;99713.09;;;19.62;79.68
68107;BME280;54892;47.488;19.026;2023-07-31T03:08:41;99715.34;;;19.60;79.54
68107;BME280;54892;47.488;19.026;2023-07-31T03:11:44;99731.41;;;19.60;79.50
68107;BME280;54892;47.488;19.026;2023-07-31T03:14:48;99730.94;;;19.58;79.50
68107;BME280;54892;47.488;19.026;2023-07-31T03:17:52;99732.84;;;19.49;79.93
68107;BME280;54892;47.488;19.026;2023-07-31T03:20:55;99732.72;;;19.45;79.94
68107;BME280;54892;47.488;19.026;2023-07-31T03:23:58;99739.97;;;19.45;79.91
68107;BME280;54892;47.488;19.026;2023-07-31T03:27:02;99741.56;;;19.46;79.79
68107;BME280;54892;47.488;19.026;2023-07-31T03:30:07;99742.00;;;19.48;79.39
68107;BME280;54892;47.488;19.026;2023-07-31T03:33:10;99744.22;;;19.46;79.25
68107;BME280;54892;47.488;19.026;2023-07-31T03:36:13;99743.75;;;19.44;79.15
68107;BME280;54892;47.488;19.026;2023-07-31T03:39:17;99735.25;;;19.42;79.26
68107;BME280;54892;47.488;19.026;2023-07-31T03:42:20;99731.28;;;19.48;79.03
68107;BME280;54892;47.488;19.026;2023-07-31T03:45:25;99739.66;;;19.46;78.79
68107;BME280;54892;47.488;19.026;2023-07-31T03:48:29;99739.50;;;19.43;78.75
68107;BME280;54892;47.488;19.026;2023-07-31T03:51:32;99748.91;;;19.49;78.39
68107;BME280;54892;47.488;19.026;2023-07-31T03:54:36;99739.78;;;19.50;78.19
68107;BME280;54892;47.488;19.026;2023-07-31T03:57:39;99739.16;;;19.53;78.11
68107;BME280;54892;47.488;19.026;2023-07-31T04:00:44;99747.66;;;19.55;78.01
68107;BME280;54892;47.488;19.026;2023-07-31T04:03:47;99747.00;;;19.58;77.80
68107;BME280;54892;47.488;19.026;2023-07-31T04:06:50;99743.22;;;19.59;77.87
68107;BME280;54892;47.488;19.026;2023-07-31T04:09:53;99741.78;;;19.62;77.65
68107;BME280;54892;47.488;19.026;2023-07-31T04:12:56;99748.84;;;19.67;77.17
68107;BME280;54892;47.488;19.026;2023-07-31T04:16:01;99748.34;;;19.73;76.54
68107;BME280;54892;47.488;19.026;2023-07-31T04:19:04;99742.81;;;19.78;76.39
68107;BME280;54892;47.488;19.026;2023-07-31T04:22:07;99745.47;;;19.87;75.99
68107;BME280;54892;47.488;19.026;2023-07-31T04:25:11;99748.75;;;19.84;76.18
68107;BME280;54892;47.488;19.026;2023-07-31T04:28:14;99739.00;;;19.88;75.96
68107;BME280;54892;47.488;19.026;2023-07-31T04:31:19;99744.97;;;19.85;75.71
68107;BME280;54892;47.488;19.026;2023-07-31T04:34:23;99741.81;;;19.92;75.26
68107;BME280;54892;47.488;19.026;2023-07-31T04:37:26;99747.06;;;20.10;74.40
68107;BME280;54892;47.488;19.026;2023-07-31T04:40:29;99747.25;;;20.26;73.98
68107;BME280;54892;47.488;19.026;2023-07-31T04:43:33;99746.09;;;20.14;74.34
68107;BME280;54892;47.488;19.026;2023-07-31T04:46:37;99744.38;;;20.10;74.04
68107;BME280;54892;47.488;19.026;2023-07-31T04:49:41;99747.25;;;20.04;73.63
68107;BME280;54892;47.488;19.026;2023-07-31T04:52:44;99755.22;;;20.13;71.68
68107;BME280;54892;47.488;19.026;2023-07-31T04:55:47;99751.84;;;20.04;70.92
68107;BME280;54892;47.488;19.026;2023-07-31T04:58:51;99754.19;;;20.05;70.62
68107;BME280;54892;47.488;19.026;2023-07-31T05:01:56;99754.81;;;20.02;68.20
68107;BME280;54892;47.488;19.026;2023-07-31T05:04:59;99750.53;;;20.10;66.31
68107;BME280;54892;47.488;19.026;2023-07-31T05:08:02;99751.97;;;20.07;66.12
68107;BME280;54892;47.488;19.026;2023-07-31T05:11:06;99754.94;;;20.15;64.70
68107;BME280;54892;47.488;19.026;2023-07-31T05:14:09;99759.44;;;20.23;62.66
68107;BME280;54892;47.488;19.026;2023-07-31T05:17:14;99756.87;;;20.27;61.57
68107;BME280;54892;47.488;19.026;2023-07-31T05:20:18;99748.78;;;20.35;60.12
68107;BME280;54892;47.488;19.026;2023-07-31T05:23:21;99749.34;;;20.41;58.23
68107;BME280;54892;47.488;19.026;2023-07-31T05:26:25;99747.13;;;20.43;56.73
68107;BME280;54892;47.488;19.026;2023-07-31T05:29:28;99752.97;;;20.45;55.76
68107;BME280;54892;47.488;19.026;2023-07-31T05:32:32;99767.94;;;20.46;56.74
68107;BME280;54892;47.488;19.026;2023-07-31T05:35:35;99759.06;;;20.54;56.59
68107;BME280;54892;47.488;19.026;2023-07-31T05:38:38;99760.28;;;20.57;57.03
68107;BME280;54892;47.488;19.026;2023-07-31T05:41:43;99746.69;;;20.62;56.94
68107;BME280;54892;47.488;19.026;2023-07-31T05:44:47;99738.31;;;20.64;57.41
68107;BME280;54892;47.488;19.026;2023-07-31T05:47:51;99764.31;;;20.63;57.24
68107;BME280;54892;47.488;19.026;2023-07-31T05:50:54;99759.09;;;20.67;57.37
68107;BME280;54892;47.488;19.026;2023-07-31T05:53:58;99767.56;;;20.78;56.21
68107;BME280;54892;47.488;19.026;2023-07-31T05:57:02;99764.87;;;20.78;56.23
68107;BME280;54892;47.488;19.026;2023-07-31T06:00:06;99778.88;;;20.83;55.88
68107;BME280;54892;47.488;19.026;2023-07-31T06:03:11;99771.69;;;20.88;54.74
68107;BME280;54892;47.488;19.026;2023-07-31T06:06:14;99782.44;;;20.88;55.03
68107;BME280;54892;47.488;19.026;2023-07-31T06:09:18;99782.50;;;21.00;54.99
68107;BME280;54892;47.488;19.026;2023-07-31T06:12:22;99776.69;;;20.98;55.99
68107;BME280;54892;47.488;19.026;2023-07-31T06:15:27;99779.22;;;20.94;56.03
68107;BME280;54892;47.488;19.026;2023-07-31T06:18:32;99776.69;;;20.98;55.34
68107;BME280;54892;47.488;19.026;2023-07-31T06:21:35;99775.09;;;20.97;54.92
68107;BME280;54892;47.488;19.026;2023-07-31T06:24:39;99773.34;;;21.01;54.81
68107;BME280;54892;47.488;19.026;2023-07-31T06:27:42;99788.00;;;21.16;55.55
68107;BME280;54892;47.488;19.026;2023-07-31T06:30:46;99780.78;;;21.29;54.68
68107;BME280;54892;47.488;19.026;2023-07-31T06:33:51;99780.59;;;21.47;54.26
68107;BME280;54892;47.488;19.026;2023-07-31T06:36:54;99776.47;;;21.62;54.53
68107;BME280;54892;47.488;19.026;2023-07-31T06:39:58;99784.41;;;21.70;53.60
68107;BME280;54892;47.488;19.026;2023-07-31T06:43:01;99781.53;;;21.75;53.29
68107;BME280;54892;47.488;19.026;2023-07-31T06:46:09;99776.47;;;21.74;53.41
68107;BME280;54892;47.488;19.026;2023-07-31T06:49:14;99789.03;;;21.70;53.79
68107;BME280;54892;47.488;19.026;2023-07-31T06:52:18;99783.41;;;21.63;53.12
68107;BME280;54892;47.488;19.026;2023-07-31T06:55:22;99784.50;;;21.49;53.82
68107;BME280;54892;47.488;19.026;2023-07-31T06:58:25;99802.06;;;21.47;54.23
68107;BME280;54892;47.488;19.026;2023-07-31T07:01:28;99787.06;;;21.45;54.76
68107;BME280;54892;47.488;19.026;2023-07-31T07:04:33;99784.88;;;21.60;55.11
68107;BME280;54892;47.488;19.026;2023-07-31T07:07:36;99797.97;;;21.62;55.61
68107;BME280;54892;47.488;19.026;2023-07-31T07:10:39;99794.72;;;21.68;55.55
68107;BME280;54892;47.488;19.026;2023-07-31T07:13:43;99818.47;;;21.79;55.84
68107;BME280;54892;47.488;19.026;2023-07-31T07:16:50;99817.44;;;21.71;56.46
68107;BME280;54892;47.488;19.026;2023-07-31T07:19:54;99818.31;;;21.75;56.37
68107;BME280;54892;47.488;19.026;2023-07-31T07:22:58;99811.41;;;21.99;55.66
68107;BME280;54892;47.488;19.026;2023-07-31T07:26:01;99809.44;;;22.36;53.17
68107;BME280;54892;47.488;19.026;2023-07-31T07:29:05;99807.53;;;23.35;51.05
68107;BME280;54892;47.488;19.026;2023-07-31T07:32:10;99808.69;;;24.17;48.49
68107;BME280;54892;47.488;19.026;2023-07-31T07:35:15;99819.00;;;25.06;45.39
68107;BME280;54892;47.488;19.026;2023-07-31T07:38:18;99825.50;;;26.22;42.40
68107;BME280;54892;47.488;19.026;2023-07-31T07:41:22;99814.50;;;27.47;39.30
68107;BME280;54892;47.488;19.026;2023-07-31T07:44:25;99817.91;;;28.70;36.84
68107;BME280;54892;47.488;19.026;2023-07-31T07:47:30;99819.81;;;28.59;35.74
68107;BME280;54892;47.488;19.026;2023-07-31T07:50:34;99814.69;;;28.39;35.74
68107;BME280;54892;47.488;19.026;2023-07-31T07:53:38;99813.53;;;27.70;36.21
68107;BME280;54892;47.488;19.026;2023-07-31T07:56:42;99814.97;;;26.17;39.14
68107;BME280;54892;47.488;19.026;2023-07-31T07:59:45;99811.88;;;24.98;41.49
68107;BME280;54892;47.488;19.026;2023-07-31T08:02:49;99809.25;;;25.25;41.61
68107;BME280;54892;47.488;19.026;2023-07-31T08:05:54;99811.63;;;26.57;38.74
68107;BME280;54892;47.488;19.026;2023-07-31T08:09:00;99806.66;;;27.87;36.45
68107;BME280;54892;47.488;19.026;2023-07-31T08:12:07;99808.72;;;29.15;33.55
68107;BME280;54892;47.488;19.026;2023-07-31T08:15:10;99814.19;;;29.51;32.73
68107;BME280;54892;47.488;19.026;2023-07-31T08:18:14;99825.03;;;29.91;31.89
68107;BME280;54892;47.488;19.026;2023-07-31T08:21:18;99813.00;;;29.59;31.96
68107;BME280;54892;47.488;19.026;2023-07-31T08:24:22;99808.06;;;28.26;33.97
68107;BME280;54892;47.488;19.026;2023-07-31T08:27:26;99810.78;;;27.22;35.64
68107;BME280;54892;47.488;19.026;2023-07-31T08:30:29;99812.53;;;26.69;36.67
68107;BME280;54892;47.488;19.026;2023-07-31T08:33:32;99827.56;;;26.32;37.70
68107;BME280;54892;47.488;19.026;2023-07-31T08:36:37;99829.03;;;25.76;38.70
68107;BME280;54892;47.488;19.026;2023-07-31T08:39:41;99811.19;;;25.44;40.03
68107;BME280;54892;47.488;19.026;2023-07-31T08:42:44;99816.88;;;25.19;41.06
68107;BME280;54892;47.488;19.026;2023-07-31T08:45:47;99819.16;;;25.17;41.24
68107;BME280;54892;47.488;19.026;2023-07-31T08:48:51;99805.38;;;25.22;40.26
68107;BME280;54892;47.488;19.026;2023-07-31T08:51:57;99813.16;;;25.04;41.00
68107;BME280;54892;47.488;19.026;2023-07-31T08:55:00;99814.47;;;24.91;40.25
68107;BME280;54892;47.488;19.026;2023-07-31T08:58:04;99808.91;;;24.84;40.62
68107;BME280;54892;47.488;19.026;2023-07-31T09:01:08;99796.72;;;24.70;40.50
68107;BME280;54892;47.488;19.026;2023-07-31T09:04:11;99792.22;;;24.78;40.67
68107;BME280;54892;47.488;19.026;2023-07-31T09:07:17;99804.44;;;24.72;41.07
68107;BME280;54892;47.488;19.026;2023-07-31T09:10:20;99801.72;;;24.52;39.76
68107;BME280;54892;47.488;19.026;2023-07-31T09:13:23;99801.06;;;24.39;40.16
68107;BME280;54892;47.488;19.026;2023-07-31T09:16:27;99791.91;;;24.24;39.84
68107;BME280;54892;47.488;19.026;2023-07-31T09:19:32;99795.03;;;24.26;40.85
68107;BME280;54892;47.488;19.026;2023-07-31T10:04:43;99776.28;;;24.53;41.38
68107;BME280;54892;47.488;19.026;2023-07-31T10:07:51;99776.28;;;24.53;41.38
68107;BME280;54892;47.488;19.026;2023-07-31T10:10:58;99783.78;;;24.05;43.05
68107;BME280;54892;47.488;19.026;2023-07-31T10:14:02;99776.22;;;24.10;41.48
68107;BME280;54892;47.488;19.026;2023-07-31T10:17:08;99783.47;;;24.26;41.65
68107;BME280;54892;47.488;19.026;2023-07-31T10:20:13;99779.00;;;24.33;41.55
68107;BME280;54892;47.488;19.026;2023-07-31T10:23:19;99774.75;;;24.32;41.86
68107;BME280;54892;47.488;19.026;2023-07-31T10:26:23;99771.63;;;24.30;41.48
68107;BME280;54892;47.488;19.026;2023-07-31T10:29:28;99774.25;;;24.27;41.64
68107;BME280;54892;47.488;19.026;2023-07-31T10:32:32;99780.47;;;24.11;42.37
68107;BME280;54892;47.488;19.026;2023-07-31T10:35:37;99772.28;;;24.08;42.75
68107;BME280;54892;47.488;19.026;2023-07-31T10:38:42;99762.78;;;24.14;42.57
68107;BME280;54892;47.488;19.026;2023-07-31T10:41:46;99750.41;;;24.29;43.05
68107;BME280;54892;47.488;19.026;2023-07-31T10:44:49;99757.22;;;24.42;43.04
68107;BME280;54892;47.488;19.026;2023-07-31T10:47:58;99754.78;;;24.57;41.93
68107;BME280;54892;47.488;19.026;2023-07-31T10:51:09;99762.47;;;24.74;42.44
68107;BME280;54892;47.488;19.026;2023-07-31T10:54:15;99756.00;;;24.79;42.36
68107;BME280;54892;47.488;19.026;2023-07-31T10:57:20;99760.31;;;24.84;41.50
68107;BME280;54892;47.488;19.026;2023-07-31T11:00:27;99753.66;;;24.77;41.33
68107;BME280;54892;47.488;19.026;2023-07-31T11:03:46;99757.81;;;24.95;41.45
68107;BME280;54892;47.488;19.026;2023-07-31T11:06:58;99749.53;;;24.84;40.00
68107;BME280;54892;47.488;19.026;2023-07-31T11:10:02;99744.06;;;24.80;39.81
68107;BME280;54892;47.488;19.026;2023-07-31T11:13:06;99753.97;;;24.72;39.86
68107;BME280;54892;47.488;19.026;2023-07-31T11:16:10;99748.56;;;24.72;40.11
68107;BME280;54892;47.488;19.026;2023-07-31T11:19:14;99740.91;;;24.74;39.74
68107;BME280;54892;47.488;19.026;2023-07-31T11:22:19;99740.59;;;24.80;39.60
68107;BME280;54892;47.488;19.026;2023-07-31T11:25:22;99738.38;;;24.85;40.09
68107;BME280;54892;47.488;19.026;2023-07-31T11:28:25;99748.41;;;24.85;39.84
68107;BME280;54892;47.488;19.026;2023-07-31T11:31:29;99735.75;;;24.89;39.83
68107;BME280;54892;47.488;19.026;2023-07-31T11:34:32;99741.03;;;25.05;39.59
68107;BME280;54892;47.488;19.026;2023-07-31T11:37:41;99734.44;;;25.02;39.02
68107;BME280;54892;47.488;19.026;2023-07-31T11:40:45;99733.53;;;25.18;39.09
68107;BME280;54892;47.488;19.026;2023-07-31T11:43:48;99725.72;;;25.13;39.07
68107;BME280;54892;47.488;19.026;2023-07-31T11:46:51;99731.97;;;25.17;38.77
68107;BME280;54892;47.488;19.026;2023-07-31T11:49:55;99730.22;;;25.28;38.46
68107;BME280;54892;47.488;19.026;2023-07-31T11:53:02;99729.19;;;25.36;37.37
68107;BME280;54892;47.488;19.026;2023-07-31T11:56:07;99731.59;;;25.42;38.27
68107;BME280;54892;47.488;19.026;2023-07-31T11:59:13;99716.97;;;25.43;38.06
68107;BME280;54892;47.488;19.026;2023-07-31T12:02:17;99727.81;;;25.46;38.65
68107;BME280;54892;47.488;19.026;2023-07-31T12:05:22;99717.78;;;25.47;38.20
68107;BME280;54892;47.488;19.026;2023-07-31T12:08:27;99725.53;;;25.48;37.81
68107;BME280;54892;47.488;19.026;2023-07-31T12:11:31;99714.00;;;25.51;37.51
68107;BME280;54892;47.488;19.026;2023-07-31T12:14:35;99703.31;;;25.59;38.17
68107;BME280;54892;47.488;19.026;2023-07-31T12:17:47;99710.19;;;25.56;38.44
68107;BME280;54892;47.488;19.026;2023-07-31T12:20:54;99705.16;;;25.54;38.52
68107;BME280;54892;47.488;19.026;2023-07-31T12:23:59;99704.66;;;25.45;38.24
68107;BME280;54892;47.488;19.026;2023-07-31T12:27:07;99696.63;;;25.26;39.11
68107;BME280;54892;47.488;19.026;2023-07-31T12:30:26;99698.66;;;25.32;39.48
68107;BME280;54892;47.488;19.026;2023-07-31T12:33:31;99689.50;;;25.41;39.48
68107;BME280;54892;47.488;19.026;2023-07-31T12:36:35;99696.59;;;25.49;39.31
68107;BME280;54892;47.488;19.026;2023-07-31T12:39:40;99699.31;;;25.49;39.01
68107;BME280;54892;47.488;19.026;2023-07-31T12:42:43;99690.09;;;25.53;38.95
68107;BME280;54892;47.488;19.026;2023-07-31T12:45:46;99683.59;;;25.58;39.12
68107;BME280;54892;47.488;19.026;2023-07-31T12:48:50;99686.41;;;25.65;38.86
68107;BME280;54892;47.488;19.026;2023-07-31T12:51:53;99690.41;;;25.75;38.60
68107;BME280;54892;47.488;19.026;2023-07-31T12:54:58;99668.00;;;25.75;38.75
68107;BME280;54892;47.488;19.026;2023-07-31T12:58:01;99667.91;;;25.67;39.24
68107;BME280;54892;47.488;19.026;2023-07-31T13:01:05;99662.31;;;25.83;39.43
68107;BME280;54892;47.488;19.026;2023-07-31T13:04:09;99666.59;;;25.88;38.94
68107;BME280;54892;47.488;19.026;2023-07-31T13:07:12;99649.91;;;25.79;37.86
68107;BME280;54892;47.488;19.026;2023-07-31T13:10:17;99654.69;;;25.62;38.24
68107;BME280;54892;47.488;19.026;2023-07-31T13:13:20;99655.47;;;25.63;38.86
68107;BME280;54892;47.488;19.026;2023-07-31T13:16:24;99648.56;;;25.65;38.95
68107;BME280;54892;47.488;19.026;2023-07-31T13:19:28;99650.59;;;25.72;39.04
68107;BME280;54892;47.488;19.026;2023-07-31T13:22:32;99648.19;;;25.67;38.44
68107;BME280;54892;47.488;19.026;2023-07-31T13:25:37;99646.31;;;25.71;38.70
68107;BME280;54892;47.488;19.026;2023-07-31T13:28:40;99637.81;;;25.69;38.54
68107;BME280;54892;47.488;19.026;2023-07-31T13:31:44;99651.41;;;25.76;38.14
68107;BME280;54892;47.488;19.026;2023-07-31T13:34:49;99635.31;;;25.87;38.45
68107;BME280;54892;47.488;19.026;2023-07-31T13:37:53;99640.09;;;25.97;38.17
68107;BME280;54892;47.488;19.026;2023-07-31T13:40:57;99643.47;;;25.91;38.14
68107;BME280;54892;47.488;19.026;2023-07-31T13:44:01;99642.47;;;25.72;38.03
68107;BME280;54892;47.488;19.026;2023-07-31T13:47:04;99637.84;;;25.73;38.15
68107;BME280;54892;47.488;19.026;2023-07-31T13:50:08;99629.03;;;25.79;38.09
68107;BME280;54892;47.488;19.026;2023-07-31T13:53:12;99631.12;;;25.90;37.69
68107;BME280;54892;47.488;19.026;2023-07-31T13:56:16;99638.00;;;25.87;37.94
68107;BME280;54892;47.488;19.026;2023-07-31T13:59:20;99630.66;;;25.84;38.16
68107;BME280;54892;47.488;19.026;2023-07-31T14:02:23;99628.00;;;25.88;37.87
68107;BME280;54892;47.488;19.026;2023-07-31T14:05:27;99622.59;;;25.88;37.54
68107;BME280;54892;47.488;19.026;2023-07-31T14:08:30;99624.47;;;25.83;37.81
68107;BME280;54892;47.488;19.026;2023-07-31T14:11:35;99614.19;;;25.96;37.52
68107;BME280;54892;47.488;19.026;2023-07-31T14:14:39;99615.75;;;25.97;37.66
68107;BME280;54892;47.488;19.026;2023-07-31T14:17:43;99611.81;;;25.91;37.58
68107;BME280;54892;47.488;19.026;2023-07-31T14:20:48;99618.09;;;26.03;37.55
68107;BME280;54892;47.488;19.026;2023-07-31T14:23:51;99620.87;;;26.06;37.43
68107;BME280;54892;47.488;19.026;2023-07-31T14:26:55;99613.84;;;26.02;37.61
68107;BME280;54892;47.488;19.026;2023-07-31T14:29:59;99611.47;;;25.96;37.65
68107;BME280;54892;47.488;19.026;2023-07-31T14:33:02;99620.75;;;25.95;37.83
68107;BME280;54892;47.488;19.026;2023-07-31T14:36:06;99605.44;;;26.10;37.02
68107;BME280;54892;47.488;19.026;2023-07-31T14:39:09;99600.31;;;26.02;37.32
68107;BME280;54892;47.488;19.026;2023-07-31T14:42:14;99603.56;;;26.11;37.21
68107;BME280;54892;47.488;19.026;2023-07-31T14:45:18;99598.63;;;26.20;37.18
68107;BME280;54892;47.488;19.026;2023-07-31T14:48:22;99594.03;;;26.24;37.13
68107;BME280;54892;47.488;19.026;2023-07-31T14:51:25;99597.25;;;26.37;37.19
68107;BME280;54892;47.488;19.026;2023-07-31T14:54:28;99593.69;;;26.29;36.84
68107;BME280;54892;47.488;19.026;2023-07-31T14:57:34;99596.66;;;26.17;37.06
68107;BME280;54892;47.488;19.026;2023-07-31T15:00:37;99587.75;;;26.13;36.35
68107;BME280;54892;47.488;19.026;2023-07-31T15:03:40;99582.75;;;26.15;36.65
68107;BME280;54892;47.488;19.026;2023-07-31T15:06:44;99578.50;;;26.18;36.91
68107;BME280;54892;47.488;19.026;2023-07-31T15:09:48;99577.78;;;26.24;36.87
68107;BME280;54892;47.488;19.026;2023-07-31T15:12:52;99576.66;;;26.25;36.21
68107;BME280;54892;47.488;19.026;2023-07-31T15:15:56;99570.81;;;26.20;36.18
68107;BME280;54892;47.488;19.026;2023-07-31T15:19:00;99575.84;;;26.25;36.49
68107;BME280;54892;47.488;19.026;2023-07-31T15:22:03;99571.69;;;26.35;36.38
68107;BME280;54892;47.488;19.026;2023-07-31T15:25:08;99570.41;;;26.21;36.31
68107;BME280;54892;47.488;19.026;2023-07-31T15:28:13;99569.09;;;26.08;36.58
68107;BME280;54892;47.488;19.026;2023-07-31T15:31:16;99570.25;;;26.07;36.71
68107;BME280;54892;47.488;19.026;2023-07-31T15:34:20;99568.69;;;26.06;36.69
68107;BME280;54892;47.488;19.026;2023-07-31T15:37:24;99566.31;;;26.00;36.63
68107;BME280;54892;47.488;19.026;2023-07-31T15:40:27;99564.81;;;26.03;36.90
68107;BME280;54892;47.488;19.026;2023-07-31T15:43:32;99561.66;;;25.97;36.93
68107;BME280;54892;47.488;19.026;2023-07-31T15:46:35;99550.59;;;26.10;36.76
68107;BME280;54892;47.488;19.026;2023-07-31T15:49:38;99553.19;;;26.03;36.51
68107;BME280;54892;47.488;19.026;2023-07-31T15:52:41;99543.87;;;25.96;36.27
68107;BME280;54892;47.488;19.026;2023-07-31T15:55:45;99542.66;;;25.90;36.83
68107;BME280;54892;47.488;19.026;2023-07-31T15:58:50;99541.88;;;25.90;36.58
68107;BME280;54892;47.488;19.026;2023-07-31T16:01:53;99548.38;;;25.85;36.51
68107;BME280;54892;47.488;19.026;2023-07-31T16:04:57;99540.62;;;25.80;36.65
68107;BME280;54892;47.488;19.026;2023-07-31T16:08:00;99544.53;;;25.86;36.97
68107;BME280;54892;47.488;19.026;2023-07-31T16:11:04;99537.94;;;25.83;36.95
68107;BME280;54892;47.488;19.026;2023-07-31T16:14:08;99532.50;;;25.80;36.98
68107;BME280;54892;47.488;19.026;2023-07-31T16:17:12;99530.50;;;25.73;37.33
68107;BME280;54892;47.488;19.026;2023-07-31T16:20:16;99532.78;;;25.67;36.92
68107;BME280;54892;47.488;19.026;2023-07-31T16:23:19;99539.66;;;25.61;37.31
68107;BME280;54892;47.488;19.026;2023-07-31T16:26:22;99538.56;;;25.69;36.93
68107;BME280;54892;47.488;19.026;2023-07-31T16:29:27;99531.53;;;25.61;37.16
68107;BME280;54892;47.488;19.026;2023-07-31T16:32:30;99535.31;;;25.53;37.24
68107;BME280;54892;47.488;19.026;2023-07-31T16:35:33;99533.38;;;25.53;37.24
68107;BME280;54892;47.488;19.026;2023-07-31T16:38:37;99527.09;;;25.46;37.76
68107;BME280;54892;47.488;19.026;2023-07-31T16:41:40;99529.41;;;25.44;37.91
68107;BME280;54892;47.488;19.026;2023-07-31T16:44:45;99535.44;;;25.33;37.92